Terminal Aerodrome Forecast
Issued by NWS Wichita, KS

Home | Current Version | Previous Version | Graphics & Text | Print | Product List | Glossary On
Versions: 1 2 3 4 5 6 7 8 9 10 11 12 13 14 15 16 17
000
FTUS43 KICT 272000 AAA
TAFICT
TAF AMD
KICT 272022Z 2720/2818 35014KT P6SM BKN150
     FM280200 35010KT P6SM BKN120
     FM280800 35004KT P6SM BKN110=

USA.gov is the U.S. government's official web portal to all federal, state and local government web resources and services.